Time;durP1;ratioP1;P1;durP2;ratioP2;P2;SDS_P1;SDS_P2;PMS_P1;PMS_P2;Temp;Humidity;BMP_temperature;BMP_pressure;BME280_temperature;BME280_humidity;BME280_pressure;Samples;Min_cycle;Max_cycle;Signal;HPM_P1;HPM_P2
2021/11/11 00:02:22;;;;;;;7.32;6.55;;;;;;;17.91;65.67;101247.03;4921940;29;20031;-96
2021/11/11 00:04:48;;;;;;;9.25;7.75;;;;;;;17.82;66.10;101237.97;4912131;29;20421;-96
2021/11/11 00:07:14;;;;;;;8.32;7.25;;;;;;;17.89;65.72;101237.50;4899523;29;20021;-96
2021/11/11 00:09:40;;;;;;;8.52;7.22;;;;;;;17.77;66.36;101234.91;4897997;29;20076;-96
2021/11/11 00:12:06;;;;;;;9.38;7.80;;;;;;;17.75;66.38;101226.22;4899489;29;20112;-96
2021/11/11 00:14:31;;;;;;;10.82;7.95;;;;;;;17.90;66.21;101239.19;4901603;29;20017;-96
2021/11/11 00:22:07;;;;;;;10.25;8.38;;;;;;;17.74;66.82;101227.19;5855627;23;20795;-96
2021/11/11 00:24:33;;;;;;;10.10;8.77;;;;;;;17.77;66.75;101232.25;4897852;29;20041;-96
2021/11/11 00:26:59;;;;;;;10.25;8.68;;;;;;;17.76;66.42;101230.53;4892724;29;20085;-96
2021/11/11 00:29:25;;;;;;;11.07;9.15;;;;;;;17.81;66.52;101236.31;4944173;23;20037;-96
2021/11/11 00:31:50;;;;;;;11.43;8.30;;;;;;;17.76;66.54;101227.06;4903687;29;20151;-96
2021/11/11 00:34:16;;;;;;;8.77;7.68;;;;;;;17.86;66.32;101225.31;4922115;29;20024;-96
2021/11/11 00:36:41;;;;;;;10.02;8.90;;;;;;;17.65;66.49;101230.59;4922996;29;20056;-96
2021/11/11 00:39:07;;;;;;;10.27;8.93;;;;;;;17.70;66.19;101228.41;4922470;29;20040;-96
2021/11/11 00:44:08;;;;;;;7.38;6.07;;;;;;;17.78;66.64;101230.41;5632390;23;20037;-96
2021/11/11 00:56:54;;;;;;;8.27;7.18;;;;;;;17.87;66.62;101239.44;5179107;23;20069;-96
2021/11/11 00:59:20;;;;;;;8.40;7.13;;;;;;;17.90;66.44;101249.81;4897038;29;20143;-96
2021/11/11 01:01:46;;;;;;;8.30;6.70;;;;;;;17.77;66.48;101229.59;4918340;29;20121;-96
2021/11/11 01:04:24;;;;;;;7.53;6.70;;;;;;;17.72;66.47;101239.75;4922713;29;20036;-96
2021/11/11 01:07:32;;;;;;;7.53;6.60;;;;;;;17.84;67.07;101246.69;4888407;29;20024;-96
2021/11/11 01:13:37;;;;;;;9.23;7.32;;;;;;;17.79;66.93;101243.56;5006243;23;20057;-96
2021/11/11 01:16:03;;;;;;;7.88;6.57;;;;;;;17.85;66.55;101226.28;4916765;29;20024;-96
2021/11/11 01:18:32;;;;;;;7.50;6.60;;;;;;;17.82;66.61;101230.00;4922979;29;20096;-96
2021/11/11 01:20:58;;;;;;;6.60;5.93;;;;;;;17.94;66.09;101227.31;4921397;29;20035;-96
2021/11/11 01:23:24;;;;;;;7.75;6.50;;;;;;;17.99;66.39;101238.38;4919814;29;20092;-96
2021/11/11 01:25:50;;;;;;;7.32;6.45;;;;;;;17.79;66.87;101224.97;4921323;29;20029;-96
2021/11/11 01:33:26;;;;;;;7.43;6.18;;;;;;;17.86;66.71;101237.78;5459586;23;20032;-96
2021/11/11 01:35:52;;;;;;;7.68;6.38;;;;;;;17.75;67.26;101234.19;4901058;29;20025;-96
2021/11/11 01:38:18;;;;;;;8.13;6.50;;;;;;;17.80;66.93;101228.47;4902137;29;20005;-96
2021/11/11 01:40:44;;;;;;;8.25;6.90;;;;;;;17.73;67.09;101222.84;4903226;29;20032;-96
2021/11/11 01:43:10;;;;;;;8.65;7.05;;;;;;;17.78;66.46;101223.28;4902558;29;20033;-96
2021/11/11 01:45:39;;;;;;;8.32;7.00;;;;;;;17.87;66.81;101226.16;4903268;29;20049;-96
2021/11/11 01:48:07;;;;;;;8.68;7.75;;;;;;;17.77;66.78;101216.31;4903925;29;20017;-96
2021/11/11 01:53:13;;;;;;;7.00;6.30;;;;;;;17.71;67.08;101208.84;5067842;23;20071;-96
2021/11/11 03:28:46;;;;;;;6.20;4.82;;;;;;;17.54;67.63;101191.69;4956555;23;20077;-96
2021/11/11 03:38:58;;;;;;;5.75;4.85;;;;;;;17.31;68.10;101179.53;5147152;23;20047;-96
2021/11/11 03:41:24;;;;;;;4.57;3.97;;;;;;;17.34;68.59;101184.59;4904639;29;20041;-96
2021/11/11 03:43:50;;;;;;;6.38;4.40;;;;;;;17.43;68.26;101187.28;4904610;29;20033;-96
2021/11/11 03:46:16;;;;;;;6.60;4.57;;;;;;;17.22;68.53;101191.78;5298324;23;20055;-96
2021/11/11 03:51:22;;;;;;;6.57;4.60;;;;;;;17.40;68.48;101203.47;5920032;23;20023;-95
2021/11/11 03:56:23;;;;;;;5.40;4.63;;;;;;;17.43;68.36;101197.06;5592434;23;20057;-96
2021/11/11 03:58:49;;;;;;;5.55;3.97;;;;;;;17.41;67.95;101186.56;4905638;29;20037;-96
2021/11/11 04:01:16;;;;;;;10.27;5.32;;;;;;;17.46;67.88;101202.13;4905648;29;20029;-96
2021/11/11 04:03:42;;;;;;;4.97;4.18;;;;;;;17.35;68.41;101191.56;4905550;29;20052;-96
2021/11/11 04:06:08;;;;;;;7.05;5.60;;;;;;;17.19;68.54;101186.69;4904679;29;20092;-96
2021/11/11 04:08:34;;;;;;;5.25;4.68;;;;;;;17.26;68.85;101193.19;4904119;29;20037;-96
2021/11/11 04:13:38;;;;;;;5.18;4.68;;;;;;;17.18;68.85;101192.97;5395140;23;20077;-96
2021/11/11 04:23:47;;;;;;;5.20;4.70;;;;;;;17.24;69.23;101190.66;5044048;23;20093;-96
2021/11/11 04:26:21;;;;;;;7.78;5.70;;;;;;;17.22;69.22;101187.28;4900738;29;20031;-96
2021/11/11 04:31:26;;;;;;;5.32;4.32;;;;;;;17.30;68.83;101185.78;4905077;29;20047;-96
2021/11/11 05:02:57;;;;;;;6.97;5.50;;;;;;;17.49;67.79;101199.19;4901043;29;20051;-96
2021/11/11 05:05:23;;;;;;;6.25;5.07;;;;;;;17.47;68.08;101200.31;4901763;29;20013;-96
2021/11/11 06:15:06;;;;;;;12.10;6.63;;;;;;;17.31;68.08;101212.22;5481844;23;20073;-96
2021/11/11 07:17:01;;;;;;;7.30;6.28;;;;;;;17.36;67.70;101235.75;5647414;23;20037;-93
2021/11/11 07:19:26;;;;;;;6.47;5.75;;;;;;;17.22;67.83;101236.88;4911503;29;20001;-96
2021/11/11 07:21:52;;;;;;;7.22;5.88;;;;;;;17.16;68.03;101240.03;4920411;29;20082;-96
2021/11/11 07:39:50;;;;;;;5.65;5.05;;;;;;;16.71;68.71;101253.41;5183101;23;20037;-96
2021/11/11 07:56:26;;;;;;;5.78;4.60;;;;;;;16.64;67.48;101259.16;5402194;23;21028;-90
2021/11/11 07:58:52;;;;;;;5.65;4.70;;;;;;;16.76;68.02;101262.66;5413481;23;20117;-94
2021/11/11 08:01:18;;;;;;;4.50;4.00;;;;;;;17.09;67.12;101274.19;4880924;29;20029;-95
2021/11/11 08:03:43;;;;;;;4.57;4.07;;;;;;;17.23;66.58;101275.72;4858765;29;20511;-96
2021/11/11 08:06:09;;;;;;;5.35;4.75;;;;;;;17.04;66.99;101269.25;4863288;29;20086;-96
2021/11/11 08:08:35;;;;;;;4.95;4.45;;;;;;;17.10;67.03;101261.75;4861197;29;20030;-94
2021/11/11 08:11:01;;;;;;;5.15;4.47;;;;;;;17.17;67.20;101273.56;4860955;29;20066;-95
2021/11/11 08:13:27;;;;;;;5.00;4.28;;;;;;;17.28;66.63;101268.22;4853569;29;20038;-94
2021/11/11 08:15:53;;;;;;;5.45;4.47;;;;;;;17.27;66.67;101258.56;4889020;23;20045;-96
2021/11/11 08:18:19;;;;;;;7.53;4.20;;;;;;;17.37;66.37;101280.72;4868985;29;20036;-96
2021/11/11 08:20:46;;;;;;;5.18;4.55;;;;;;;17.08;67.19;101269.00;4860595;29;20093;-96
2021/11/11 08:23:12;;;;;;;4.13;3.72;;;;;;;17.10;67.57;101285.63;5124914;23;21073;-96
2021/11/11 08:25:38;;;;;;;6.30;4.05;;;;;;;17.23;67.15;101278.38;4876329;29;20116;-96
2021/11/11 08:28:03;;;;;;;4.45;3.88;;;;;;;17.28;67.07;101280.63;4870799;29;20025;-96
2021/11/11 08:30:29;;;;;;;5.32;4.03;;;;;;;17.09;67.60;101274.19;4870509;29;20500;-95
2021/11/11 08:32:55;;;;;;;4.15;3.75;;;;;;;17.16;68.08;101282.47;4851605;29;20018;-94
2021/11/11 08:35:22;;;;;;;4.63;4.05;;;;;;;17.53;67.26;101282.09;4843517;29;20052;-95
2021/11/11 08:37:48;;;;;;;4.45;3.90;;;;;;;17.87;66.51;101281.94;4843504;29;20065;-96
2021/11/11 08:40:16;;;;;;;6.68;5.13;;;;;;;17.94;65.65;101278.63;4844371;29;20113;-96
2021/11/11 08:42:43;;;;;;;5.22;4.47;;;;;;;17.79;65.55;101275.44;4845587;29;20037;-96
2021/11/11 08:45:09;;;;;;;4.43;4.00;;;;;;;17.89;66.48;101272.88;4844071;29;20042;-96
2021/11/11 08:47:35;;;;;;;4.78;4.15;;;;;;;18.08;65.83;101268.66;4843633;29;20042;-96
2021/11/11 08:50:00;;;;;;;4.55;4.13;;;;;;;18.22;64.88;101270.94;4845895;29;20030;-96
2021/11/11 08:52:27;;;;;;;4.47;4.00;;;;;;;18.37;64.67;101272.28;4830346;29;20113;-96
2021/11/11 08:54:55;;;;;;;5.43;4.40;;;;;;;18.27;64.76;101268.75;4842893;29;20034;-96
2021/11/11 08:57:21;;;;;;;4.80;4.03;;;;;;;18.40;63.82;101268.50;4843589;29;20496;-96
2021/11/11 08:59:52;;;;;;;4.50;4.10;;;;;;;18.58;64.30;101264.25;4842873;29;20036;-96
2021/11/11 09:02:18;;;;;;;5.10;4.07;;;;;;;18.72;63.46;101267.47;4843536;29;20129;-95
2021/11/11 09:04:43;;;;;;;4.57;3.83;;;;;;;18.59;64.35;101260.59;4843457;29;20117;-95
2021/11/11 09:07:09;;;;;;;4.38;3.97;;;;;;;18.73;63.90;101267.34;4844053;29;20041;-96
2021/11/11 09:09:34;;;;;;;4.13;3.72;;;;;;;18.87;63.68;101268.81;4843443;29;20082;-96
2021/11/11 09:12:00;;;;;;;7.25;4.10;;;;;;;19.01;62.76;101257.75;4842866;29;20381;-96
2021/11/11 09:14:25;;;;;;;4.22;3.40;;;;;;;18.96;62.65;101265.34;4843128;29;20037;-96
2021/11/11 09:16:51;;;;;;;4.47;3.97;;;;;;;19.00;61.67;101269.41;4842543;29;20105;-96
2021/11/11 09:19:16;;;;;;;3.55;3.25;;;;;;;19.11;62.20;101273.75;4841246;29;20041;-94
2021/11/11 09:21:42;;;;;;;4.60;3.85;;;;;;;19.40;61.29;101267.59;4846341;29;20166;-96
2021/11/11 09:24:10;;;;;;;4.57;3.42;;;;;;;19.45;61.57;101276.00;4844600;29;20042;-96
2021/11/11 09:26:36;;;;;;;3.42;3.03;;;;;;;19.73;61.19;101269.00;4845827;29;20030;-96
2021/11/11 09:29:03;;;;;;;3.30;3.00;;;;;;;19.77;60.25;101269.56;4843346;29;20022;-96
2021/11/11 09:31:29;;;;;;;3.70;3.08;;;;;;;19.67;60.57;101269.53;4924504;23;20085;-96
2021/11/11 09:33:55;;;;;;;3.33;2.88;;;;;;;19.86;60.24;101265.19;4856126;29;20037;-96
2021/11/11 09:36:21;;;;;;;4.53;3.53;;;;;;;19.46;59.71;101260.88;4855302;29;20030;-96
2021/11/11 09:38:47;;;;;;;3.17;2.80;;;;;;;19.62;59.88;101261.94;4848919;29;20030;-96
2021/11/11 09:41:14;;;;;;;3.03;2.70;;;;;;;19.63;61.65;101268.16;4844863;29;20026;-96
2021/11/11 09:43:41;;;;;;;2.47;2.28;;;;;;;19.83;58.54;101268.13;4842541;29;20044;-96
2021/11/11 09:46:09;;;;;;;4.40;2.65;;;;;;;19.98;60.98;101269.34;4851201;29;20059;-95
2021/11/11 09:48:36;;;;;;;2.50;2.30;;;;;;;20.32;59.42;101268.81;4849753;29;20113;-95
2021/11/11 09:51:04;;;;;;;3.92;2.50;;;;;;;20.20;58.81;101266.34;4853182;29;20029;-94
2021/11/11 09:53:31;;;;;;;4.28;2.45;;;;;;;20.56;58.23;101268.28;4841411;29;20053;-96
2021/11/11 09:58:49;;;;;;;2.47;1.73;;;;;;;21.45;54.74;101262.25;4840433;29;20136;-93
2021/11/11 10:01:18;;;;;;;3.03;2.17;;;;;;;21.20;55.87;101261.97;4835242;29;20504;-94
2021/11/11 10:03:46;;;;;;;1.63;1.52;;;;;;;21.49;55.19;101257.44;4842066;29;20034;-96
2021/11/11 10:06:15;;;;;;;3.03;1.90;;;;;;;20.54;56.63;101262.28;4839984;29;20046;-95
2021/11/11 10:08:44;;;;;;;2.17;1.88;;;;;;;20.87;55.93;101251.97;4844789;29;20369;-96
2021/11/11 10:11:22;;;;;;;2.65;1.88;;;;;;;21.66;56.44;101247.69;5435935;23;21017;-96
2021/11/11 10:16:24;;;;;;;4.63;1.30;;;;;;;22.45;52.86;101260.00;5032890;23;20072;-96
2021/11/11 10:21:30;;;;;;;1.10;1.00;;;;;;;22.97;50.89;101267.88;5212086;23;20070;-96
2021/11/11 10:34:32;;;;;;;1.20;1.10;;;;;;;23.60;47.13;101260.25;5050679;23;20061;-96
2021/11/11 10:42:15;;;;;;;3.22;0.80;;;;;;;24.05;47.26;101258.84;5032565;23;20028;-96
2021/11/11 10:49:50;;;;;;;1.58;0.90;;;;;;;24.15;46.29;101251.44;5365886;23;20038;-96
2021/11/11 10:52:27;;;;;;;4.07;0.52;;;;;;;24.41;43.20;101252.16;4875370;29;20041;-96
2021/11/11 10:55:26;;;;;;;1.00;0.75;;;;;;;25.43;44.09;101239.44;4874828;29;20037;-96
2021/11/11 10:57:59;;;;;;;2.63;0.55;;;;;;;25.96;43.27;101242.16;4857213;29;20124;-96
2021/11/11 11:00:32;;;;;;;1.73;0.60;;;;;;;26.31;40.82;101223.59;4861406;29;20080;-96
2021/11/11 11:03:18;;;;;;;0.80;0.40;;;;;;;26.98;40.66;101237.81;4868073;29;20030;-93
2021/11/11 11:05:52;;;;;;;0.47;0.43;;;;;;;27.05;40.50;101238.72;4865420;29;20033;-95
2021/11/11 11:08:44;;;;;;;1.65;0.57;;;;;;;26.77;41.60;101233.25;4863968;29;20022;-95
2021/11/11 11:11:12;;;;;;;;;;;;;;;27.04;40.87;101219.00;4851830;29;20060;-96
2021/11/11 11:13:42;;;;;;;1.48;0.68;;;;;;;26.74;41.48;101220.16;4865537;29;19920;-96
2021/11/11 11:16:12;;;;;;;3.80;0.45;;;;;;;27.50;39.86;101215.06;4863925;29;20053;-96
2021/11/11 11:18:47;;;;;;;1.63;0.57;;;;;;;27.12;39.67;101211.84;4869013;29;20045;-96
2021/11/11 11:21:19;;;;;;;3.45;0.47;;;;;;;26.55;39.83;101208.13;4869653;29;20543;-90
2021/11/11 11:23:54;;;;;;;0.40;0.30;;;;;;;26.17;41.26;101216.38;4848632;29;20041;-92
2021/11/11 11:26:29;;;;;;;2.17;0.60;;;;;;;25.46;41.75;101200.63;4864142;29;20037;-90
2021/11/11 11:29:11;;;;;;;1.35;0.60;;;;;;;25.83;41.29;101212.34;4864281;29;20048;-91
2021/11/11 11:32:05;;;;;;;5.90;1.55;;;;;;;25.31;42.29;101216.72;4863127;29;20029;-90
2021/11/11 11:34:33;;;;;;;1.73;0.22;;;;;;;26.04;40.26;101204.38;4870412;29;20033;-90
2021/11/11 11:37:08;;;;;;;0.43;0.30;;;;;;;25.80;40.99;101210.03;4861637;29;20052;-91
2021/11/11 11:39:41;;;;;;;3.10;1.00;;;;;;;25.83;40.46;101202.44;4863485;29;20034;-91
2021/11/11 11:42:13;;;;;;;4.60;1.02;;;;;;;26.20;37.79;101195.28;4863073;29;20038;-91
2021/11/11 11:44:48;;;;;;;1.17;0.57;;;;;;;26.58;36.54;101199.66;4863451;29;20066;-90
2021/11/11 11:47:33;;;;;;;0.60;0.30;;;;;;;25.90;37.33;101200.69;4862986;29;20488;-91
2021/11/11 11:50:04;;;;;;;1.35;0.70;;;;;;;25.45;38.71;101186.34;4859811;29;20037;-91
2021/11/11 11:52:33;;;;;;;1.00;0.45;;;;;;;24.79;40.32;101190.59;4859156;29;20030;-90
2021/11/11 11:57:45;;;;;;;1.17;0.50;;;;;;;24.44;40.58;101180.19;4866186;29;20124;-91
2021/11/11 12:39:55;;;;;;;1.80;0.82;;;;;;;20.45;50.70;101157.28;4867477;29;20124;-94
2021/11/11 12:42:31;;;;;;;2.13;0.80;;;;;;;20.40;50.73;101147.06;4851951;29;20400;-93
2021/11/11 12:45:31;;;;;;;3.55;1.08;;;;;;;20.36;51.17;101152.88;4852124;29;20069;-94
2021/11/11 12:48:02;;;;;;;1.73;0.73;;;;;;;20.40;51.40;101154.25;4858424;29;20412;-93
2021/11/11 12:50:46;;;;;;;;;;;;;;;20.00;51.96;101155.41;4861788;29;20129;-95
2021/11/11 12:53:13;;;;;;;2.17;0.80;;;;;;;20.13;51.66;101142.59;4857973;29;20019;-93
2021/11/11 12:55:59;;;;;;;2.28;0.70;;;;;;;20.01;51.97;101141.13;4860336;29;20017;-94
2021/11/11 12:58:42;;;;;;;2.40;0.90;;;;;;;20.01;52.45;101139.28;4849026;29;20045;-96
2021/11/11 13:01:11;;;;;;;1.45;0.60;;;;;;;20.03;52.16;101135.66;4864785;29;20053;-96
2021/11/11 13:04:03;;;;;;;1.88;0.60;;;;;;;19.90;51.47;101142.13;4861366;29;20116;-94
2021/11/11 13:06:45;;;;;;;0.82;0.70;;;;;;;19.69;52.18;101136.16;4850590;29;20401;-92
2021/11/11 13:09:17;;;;;;;2.30;1.00;;;;;;;19.78;51.42;101133.50;4859844;29;20089;-94
2021/11/11 13:11:46;;;;;;;1.27;0.75;;;;;;;19.58;52.00;101126.53;4859300;29;20447;-92
2021/11/11 13:14:16;;;;;;;1.63;0.70;;;;;;;19.70;51.11;101129.88;4858623;29;20117;-92
2021/11/11 13:16:54;;;;;;;1.55;0.85;;;;;;;19.97;50.86;101127.25;4863509;29;20396;-92
2021/11/11 13:19:29;;;;;;;1.77;1.10;;;;;;;19.73;50.91;101129.63;4863227;29;20021;-92
2021/11/11 13:21:59;;;;;;;1.90;1.02;;;;;;;19.75;51.64;101123.16;4870945;29;20048;-92
2021/11/11 15:04:23;;;;;;;3.33;1.27;;;;;;;18.91;52.39;101083.94;4865955;29;20051;-94
2021/11/11 15:18:43;;;;;;;1.90;1.08;;;;;;;18.49;53.54;101049.66;4880748;29;20029;-91
2021/11/11 15:59:49;;;;;;;5.72;1.92;;;;;;;17.97;56.37;101006.50;4881188;29;20031;-94
2021/11/11 16:02:52;;;;;;;5.55;1.90;;;;;;;17.99;56.50;100996.59;4888449;29;20029;-93
2021/11/11 16:26:51;;;;;;;7.05;2.45;;;;;;;17.17;58.08;101000.25;4862201;29;20033;-94
2021/11/11 16:29:17;;;;;;;8.15;2.50;;;;;;;17.37;57.81;100996.69;4863243;29;20033;-93
2021/11/11 16:31:42;;;;;;;5.95;2.70;;;;;;;17.49;57.38;100991.28;4865590;29;20066;-91
2021/11/11 16:34:07;;;;;;;7.07;2.15;;;;;;;17.43;57.42;100996.13;4871428;29;20030;-92
2021/11/11 16:36:37;;;;;;;7.65;2.60;;;;;;;17.19;58.30;101000.94;4873332;29;20549;-94
2021/11/11 16:39:03;;;;;;;8.73;2.85;;;;;;;17.40;57.54;101004.38;4882340;29;20638;-94
2021/11/11 16:41:29;;;;;;;6.03;2.35;;;;;;;17.32;57.69;101004.22;4874959;29;20134;-96
2021/11/11 16:43:54;;;;;;;8.95;2.80;;;;;;;17.36;57.66;101013.59;4872046;29;20030;-95
2021/11/11 16:46:20;;;;;;;7.22;2.55;;;;;;;17.53;57.27;101025.38;4877627;29;20392;-93
2021/11/11 16:48:46;;;;;;;4.50;2.58;;;;;;;17.40;57.38;101020.31;4881885;29;20018;-96
2021/11/11 16:51:12;;;;;;;12.07;3.72;;;;;;;17.34;57.90;101030.63;4874625;29;20026;-94
2021/11/11 16:53:38;;;;;;;10.88;3.35;;;;;;;17.30;58.34;101031.84;4882711;29;20029;-95
2021/11/11 16:56:05;;;;;;;13.88;5.85;;;;;;;17.33;57.95;101021.81;4868352;29;20033;-96
2021/11/11 16:58:31;;;;;;;12.88;4.55;;;;;;;17.33;57.91;101016.50;4876647;29;20026;-94
2021/11/11 17:00:56;;;;;;;12.23;3.92;;;;;;;17.24;58.09;101012.84;4855923;29;20369;-94
2021/11/11 17:03:22;;;;;;;12.95;4.63;;;;;;;17.25;58.23;101013.69;4872152;29;20536;-93
2021/11/11 17:05:49;;;;;;;11.73;4.25;;;;;;;17.16;58.70;101019.78;4861646;29;20040;-92
2021/11/11 17:08:16;;;;;;;12.23;4.00;;;;;;;17.28;58.75;101013.44;4863824;29;20036;-92
2021/11/11 17:10:42;;;;;;;14.10;4.72;;;;;;;17.40;58.11;101014.19;4860518;29;20025;-92
2021/11/11 17:13:08;;;;;;;10.93;4.15;;;;;;;17.22;58.41;101011.31;4860116;29;20033;-94
2021/11/11 17:15:35;;;;;;;10.77;3.38;;;;;;;17.47;57.77;101014.47;4860572;29;20188;-93
2021/11/11 17:18:03;;;;;;;7.05;3.47;;;;;;;17.59;57.53;101006.25;4857892;29;20056;-92
2021/11/11 17:20:30;;;;;;;8.85;3.58;;;;;;;17.55;57.65;101002.19;4842642;29;20030;-93
2021/11/11 17:22:57;;;;;;;7.05;3.08;;;;;;;17.47;57.82;101011.81;4851842;29;20400;-94
2021/11/11 17:28:00;;;;;;;6.75;3.53;;;;;;;17.52;57.95;101006.97;4871667;29;20115;-93
2021/11/11 17:30:30;;;;;;;8.15;3.10;;;;;;;17.41;58.16;100998.09;4859757;29;20254;-90
2021/11/11 17:32:56;;;;;;;8.05;3.47;;;;;;;17.29;58.66;101007.13;4862897;29;20085;-95
2021/11/11 17:35:22;;;;;;;11.23;4.10;;;;;;;17.36;58.28;101013.59;4865457;29;20041;-94
2021/11/11 17:37:48;;;;;;;4.47;3.10;;;;;;;17.34;58.55;101004.94;4864326;29;20043;-94
2021/11/11 17:40:15;;;;;;;5.15;2.97;;;;;;;17.30;58.69;101003.53;4861741;29;20065;-95
2021/11/11 17:42:42;;;;;;;4.35;3.20;;;;;;;17.30;58.27;101010.63;4867650;29;20085;-96
2021/11/11 17:45:08;;;;;;;6.45;3.42;;;;;;;17.20;58.47;101007.91;4866022;29;20448;-95
2021/11/11 17:47:35;;;;;;;6.65;3.75;;;;;;;17.12;58.66;101013.06;4859671;29;20124;-95
2021/11/11 17:50:05;;;;;;;8.85;3.53;;;;;;;17.09;58.65;101010.69;4860992;29;20037;-96
2021/11/11 17:52:33;;;;;;;11.55;4.13;;;;;;;17.08;58.85;101001.03;4859975;29;20068;-93
2021/11/11 17:55:01;;;;;;;11.88;4.35;;;;;;;16.99;58.97;100998.19;4858996;29;20408;-93
2021/11/11 17:57:30;;;;;;;9.00;3.55;;;;;;;17.01;58.83;100992.75;4859501;29;20038;-93
2021/11/11 17:59:56;;;;;;;8.52;4.05;;;;;;;16.75;59.60;100998.44;4859097;29;20060;-95
2021/11/11 18:02:29;;;;;;;11.25;3.83;;;;;;;16.62;59.85;101003.09;4859221;29;20062;-93
2021/11/11 18:04:58;;;;;;;9.82;3.90;;;;;;;16.49;60.32;100997.13;4866656;29;20037;-92
2021/11/11 18:07:28;;;;;;;7.15;3.70;;;;;;;16.42;60.37;100988.84;4872438;29;20033;-92
2021/11/11 18:10:02;;;;;;;5.03;3.38;;;;;;;16.44;60.06;100986.91;4869953;29;20049;-92
2021/11/11 18:12:34;;;;;;;15.50;5.47;;;;;;;16.40;60.13;100985.50;4860425;29;20036;-94
2021/11/11 18:15:06;;;;;;;12.48;4.88;;;;;;;16.31;60.84;100992.41;4867342;29;20178;-94
2021/11/11 18:17:32;;;;;;;8.73;4.85;;;;;;;16.23;60.63;100987.75;4861839;29;20527;-93
2021/11/11 18:22:33;;;;;;;12.77;5.35;;;;;;;16.15;60.69;100979.59;4915972;23;20042;-96
2021/11/11 18:25:00;;;;;;;9.02;5.03;;;;;;;16.03;60.88;100975.28;4843736;29;20037;-91
2021/11/11 18:27:26;;;;;;;12.15;6.13;;;;;;;16.03;60.71;100967.34;4847345;29;20396;-94
2021/11/11 18:29:54;;;;;;;10.90;6.30;;;;;;;15.98;61.09;100951.00;4848619;29;20038;-95
2021/11/11 18:32:26;;;;;;;18.80;5.80;;;;;;;15.93;60.85;100958.47;4848803;29;20037;-94
2021/11/11 18:34:57;;;;;;;;;;;;;;;15.92;61.04;100956.81;4848465;29;20113;-94
2021/11/11 18:37:24;;;;;;;10.60;6.13;;;;;;;15.85;61.02;100951.97;4830104;29;19924;-95
2021/11/11 18:39:52;;;;;;;10.35;5.95;;;;;;;15.83;61.41;100947.78;4845676;29;20237;-95
2021/11/11 18:42:18;;;;;;;8.65;5.50;;;;;;;15.78;61.30;100940.22;4845948;29;20168;-94
2021/11/11 18:44:49;;;;;;;8.35;5.68;;;;;;;15.76;61.38;100939.50;4846856;29;20041;-90
2021/11/11 18:49:47;;;;;;;12.20;5.68;;;;;;;15.64;61.59;100940.47;4845385;29;20086;-95
2021/11/11 18:52:13;;;;;;;10.98;5.40;;;;;;;15.69;61.54;100930.34;4845244;29;20030;-96
2021/11/11 18:54:39;;;;;;;12.93;6.60;;;;;;;15.70;62.00;100923.22;4845358;29;20393;-95
2021/11/11 18:57:05;;;;;;;14.98;7.55;;;;;;;15.63;62.75;100930.84;4845431;29;20022;-95
2021/11/11 18:59:31;;;;;;;10.77;7.07;;;;;;;15.74;62.51;100928.19;4845228;29;20082;-94
2021/11/11 19:01:57;;;;;;;12.38;6.78;;;;;;;15.72;62.27;100929.25;4845037;29;20037;-94
2021/11/11 19:04:25;;;;;;;11.75;6.72;;;;;;;15.75;62.38;100926.38;4844204;29;20038;-93
2021/11/11 19:06:58;;;;;;;9.73;5.47;;;;;;;15.72;62.58;100924.81;4845481;29;20108;-94
2021/11/11 19:09:31;;;;;;;10.05;5.78;;;;;;;15.74;62.33;100927.34;4847395;29;20029;-95
2021/11/11 19:12:02;;;;;;;10.98;6.28;;;;;;;15.64;62.43;100914.84;4847039;29;20120;-94
2021/11/11 19:14:33;;;;;;;14.55;6.70;;;;;;;15.71;62.73;100923.13;4843859;29;20057;-92
2021/11/11 19:17:09;;;;;;;10.05;6.68;;;;;;;15.72;62.92;100914.22;4845781;29;20045;-95
2021/11/11 19:19:37;;;;;;;12.10;6.80;;;;;;;15.69;62.92;100914.47;4848632;29;20037;-95
2021/11/11 19:22:03;;;;;;;10.38;5.90;;;;;;;15.71;62.91;100907.22;4843834;29;20030;-92
2021/11/11 19:24:29;;;;;;;9.15;6.40;;;;;;;15.71;62.22;100911.69;4845694;29;20114;-94
2021/11/11 19:26:55;;;;;;;9.68;5.93;;;;;;;15.65;62.54;100897.97;4847828;29;20061;-96
2021/11/11 19:29:22;;;;;;;10.55;6.95;;;;;;;15.60;62.73;100894.03;4844996;29;20445;-96
2021/11/11 19:31:53;;;;;;;12.88;6.88;;;;;;;15.63;62.77;100904.38;4844491;29;20034;-95
2021/11/11 19:34:46;;;;;;;13.57;7.40;;;;;;;15.59;62.93;100903.78;4844686;29;20034;-95
2021/11/11 19:48:01;;;;;;;12.13;5.90;;;;;;;15.53;62.92;100919.31;4805381;29;20502;-96
2021/11/11 19:53:16;;;;;;;14.65;5.68;;;;;;;15.73;61.69;100900.03;4845158;29;20030;-96
2021/11/11 19:56:17;;;;;;;8.43;5.53;;;;;;;15.49;62.67;100894.06;4842253;29;20037;-96
2021/11/11 19:58:50;;;;;;;12.65;5.40;;;;;;;15.80;61.47;100880.03;4847093;29;20036;-96
2021/11/11 20:01:59;;;;;;;12.15;5.93;;;;;;;15.68;61.29;100878.38;4845920;29;20061;-95
2021/11/11 20:04:24;;;;;;;12.73;5.90;;;;;;;15.52;62.00;100875.28;4844522;29;20054;-93
2021/11/11 20:56:57;;;;;;;8.50;4.60;;;;;;;14.84;63.12;100872.75;4844101;29;20030;-94
2021/11/11 21:02:19;;;;;;;8.32;5.18;;;;;;;14.90;62.90;100858.22;4842134;29;20489;-94
2021/11/11 21:04:48;;;;;;;7.30;5.43;;;;;;;14.94;62.89;100855.19;4853959;29;20389;-96
2021/11/11 21:07:19;;;;;;;8.52;4.55;;;;;;;14.95;62.65;100856.03;4851370;29;20397;-93
2021/11/11 21:19:49;;;;;;;9.55;5.68;;;;;;;14.91;63.57;100883.66;4849728;29;20041;-92
2021/11/11 21:22:14;;;;;;;7.70;4.70;;;;;;;15.00;63.24;100889.06;4841587;29;20065;-94
2021/11/11 21:24:42;;;;;;;9.38;5.05;;;;;;;15.06;63.05;100896.53;4842268;29;20071;-94
2021/11/11 21:27:11;;;;;;;9.07;5.28;;;;;;;15.08;63.09;100884.00;4841479;29;20029;-93
2021/11/11 21:29:37;;;;;;;9.23;5.20;;;;;;;14.99;63.31;100879.47;4852623;29;20433;-94
2021/11/11 21:32:04;;;;;;;6.38;4.57;;;;;;;14.91;63.32;100879.25;4842420;29;20498;-93
2021/11/11 21:40:08;;;;;;;5.97;4.28;;;;;;;14.91;63.16;100884.53;4842389;29;20042;-94
2021/11/11 21:42:37;;;;;;;6.45;4.63;;;;;;;14.92;62.91;100874.78;4841560;29;20030;-94
2021/11/11 21:45:04;;;;;;;5.85;4.28;;;;;;;14.90;63.47;100872.25;4846720;29;20040;-93
2021/11/11 21:47:30;;;;;;;6.57;4.55;;;;;;;14.95;63.31;100866.59;4844376;29;20085;-94
2021/11/11 21:49:56;;;;;;;5.30;4.28;;;;;;;14.92;63.00;100872.97;4836752;29;20116;-95
2021/11/11 21:52:24;;;;;;;7.18;4.18;;;;;;;14.81;63.08;100875.63;4840970;29;20033;-94
2021/11/11 21:55:39;;;;;;;5.93;4.60;;;;;;;14.75;63.47;100876.09;4842256;29;20154;-92
2021/11/11 21:57:44;;;;;;;6.63;4.38;;;;;;;14.82;63.04;100872.03;4838565;29;20042;-93
2021/11/11 22:32:52;;;;;;;6.53;3.95;;;;;;;14.87;62.52;100803.78;4844053;29;20047;-95
2021/11/11 22:35:21;;;;;;;7.10;4.22;;;;;;;14.75;63.14;100788.88;4846207;29;20030;-95
2021/11/11 22:37:50;;;;;;;5.05;3.60;;;;;;;14.78;63.02;100788.63;4841873;29;20026;-95
2021/11/11 22:40:16;;;;;;;12.30;4.45;;;;;;;14.68;62.76;100786.72;4853804;29;20089;-96
2021/11/11 22:42:42;;;;;;;6.15;3.83;;;;;;;14.68;62.73;100778.78;4869456;29;20053;-96
2021/11/11 22:45:10;;;;;;;5.97;4.15;;;;;;;14.61;62.32;100768.81;4853787;29;20101;-96
2021/11/11 22:47:36;;;;;;;4.70;3.63;;;;;;;14.61;62.44;100763.53;4863264;29;20018;-96
2021/11/11 22:50:04;;;;;;;5.45;3.55;;;;;;;14.58;62.31;100763.81;4865515;29;20021;-95
2021/11/11 22:52:30;;;;;;;5.05;3.67;;;;;;;14.51;62.18;100758.09;4875746;29;20026;-96
2021/11/11 22:55:02;;;;;;;8.65;4.65;;;;;;;14.43;62.24;100740.22;4881854;29;20078;-96
2021/11/11 23:02:36;;;;;;;5.25;3.13;;;;;;;14.27;62.81;100735.28;4844618;29;20057;-95
2021/11/11 23:05:12;;;;;;;6.78;3.35;;;;;;;14.26;62.13;100728.34;4842515;29;20482;-96
2021/11/11 23:20:48;;;;;;;5.30;3.08;;;;;;;14.00;62.54;100727.75;4845771;29;20037;-96
2021/11/11 23:33:36;;;;;;;4.95;3.20;;;;;;;13.84;62.38;100714.03;4844913;29;20049;-96
2021/11/11 23:36:03;;;;;;;7.25;3.55;;;;;;;13.81;61.80;100703.72;4845133;29;20049;-96
2021/11/11 23:38:29;;;;;;;7.63;3.30;;;;;;;13.79;62.53;100692.44;4844899;29;20493;-95
2021/11/11 23:40:56;;;;;;;5.00;3.33;;;;;;;13.75;62.28;100680.44;4844362;29;20040;-96
2021/11/11 23:43:22;;;;;;;7.78;4.07;;;;;;;13.67;62.07;100670.47;4846078;29;20026;-95